createdAt,value
2022-10-17T00:00:06.459Z,10.55
2022-10-17T00:02:33.034Z,10.57
2022-10-17T00:04:59.522Z,10.58
2022-10-17T00:07:26.339Z,10.60
2022-10-17T00:09:53.142Z,10.62
2022-10-17T00:12:19.647Z,10.63
2022-10-17T00:14:46.110Z,10.65
2022-10-17T00:17:12.597Z,10.66
2022-10-17T00:19:39.116Z,10.66
2022-10-17T00:22:05.642Z,10.68
2022-10-17T00:24:32.417Z,10.70
2022-10-17T00:26:58.939Z,10.71
2022-10-17T00:29:25.694Z,10.72
2022-10-17T00:31:56.202Z,10.72
2022-10-17T00:34:23.596Z,10.72
2022-10-17T00:36:50.192Z,10.73
2022-10-17T00:39:16.728Z,10.74
2022-10-17T00:41:43.270Z,10.75
2022-10-17T00:44:31.400Z,10.76
2022-10-17T00:47:00.943Z,10.75
2022-10-17T00:49:32.899Z,10.77
2022-10-17T00:52:15.666Z,10.79
2022-10-17T00:54:48.421Z,10.80
2022-10-17T00:57:16.815Z,10.80
2022-10-17T00:59:47.222Z,10.80
2022-10-17T01:02:17.169Z,10.82
2022-10-17T01:04:46.873Z,10.83
2022-10-17T01:07:13.547Z,10.84
2022-10-17T01:09:42.532Z,10.86
2022-10-17T01:12:42.883Z,10.89
2022-10-17T01:15:21.173Z,10.89
2022-10-17T01:17:53.782Z,10.91
2022-10-17T01:20:29.544Z,10.91
2022-10-17T01:23:08.056Z,10.94
2022-10-17T01:26:12.733Z,10.92
2022-10-17T01:28:54.432Z,10.92
2022-10-17T01:31:25.622Z,10.94
2022-10-17T01:34:12.436Z,10.96
2022-10-17T01:36:59.301Z,10.98
2022-10-17T01:39:41.623Z,10.98
2022-10-17T01:42:23.827Z,11.01
2022-10-17T01:44:59.959Z,11.02
2022-10-17T01:47:32.047Z,11.02
2022-10-17T01:50:05.456Z,11.05
2022-10-17T01:52:43.044Z,11.07
2022-10-17T01:55:23.732Z,11.10
2022-10-17T01:57:57.872Z,11.10
2022-10-17T02:00:27.412Z,11.10
2022-10-17T02:02:59.084Z,11.12
2022-10-17T02:05:31.363Z,11.14
2022-10-17T02:07:58.212Z,11.14
2022-10-17T02:10:42.503Z,11.15
2022-10-17T02:13:22.380Z,11.17
2022-10-17T02:16:00.435Z,11.18
2022-10-17T02:18:36.359Z,11.21
2022-10-17T02:21:30.568Z,11.19
2022-10-17T02:24:45.632Z,11.22
2022-10-17T02:27:16.682Z,11.24
2022-10-17T02:29:50.316Z,11.25
2022-10-17T02:32:35.529Z,11.25
2022-10-17T02:35:05.959Z,11.29
2022-10-17T02:37:33.878Z,11.29
2022-10-17T02:40:02.013Z,11.31
2022-10-17T02:42:31.073Z,11.30
2022-10-17T02:45:01.614Z,11.33
2022-10-17T02:47:43.565Z,11.34
2022-10-17T02:50:10.765Z,11.35
2022-10-17T02:52:46.577Z,11.35
2022-10-17T02:55:29.347Z,11.38
2022-10-17T02:58:11.386Z,11.38
2022-10-17T03:00:41.375Z,11.39
2022-10-17T03:03:29.599Z,11.39
2022-10-17T03:05:56.155Z,11.41
2022-10-17T03:08:23.827Z,11.41
2022-10-17T03:10:50.821Z,11.42
2022-10-17T03:13:18.891Z,11.43
2022-10-17T03:15:45.447Z,11.44
2022-10-17T03:18:12.299Z,11.45
2022-10-17T03:20:38.813Z,11.45
2022-10-17T03:23:05.377Z,11.47
2022-10-17T03:25:31.893Z,11.47
2022-10-17T03:28:02.416Z,11.48
2022-10-17T03:30:29.342Z,11.47
2022-10-17T03:32:57.838Z,11.48
2022-10-17T03:35:24.867Z,11.49
2022-10-17T03:37:51.381Z,11.49
2022-10-17T03:40:17.959Z,11.48
2022-10-17T03:42:44.460Z,11.49
2022-10-17T03:45:11.155Z,11.49
2022-10-17T03:47:37.625Z,11.50
2022-10-17T03:50:04.775Z,11.51
2022-10-17T03:52:31.233Z,11.52
2022-10-17T03:54:58.108Z,11.50
2022-10-17T03:57:24.609Z,11.51
2022-10-17T03:59:52.456Z,11.51
2022-10-17T04:02:19.030Z,11.51
2022-10-17T04:04:45.617Z,11.52
2022-10-17T04:07:12.140Z,11.52
2022-10-17T04:09:38.644Z,11.53
2022-10-17T04:12:05.365Z,11.53
2022-10-17T04:14:31.867Z,11.52
2022-10-17T04:16:58.568Z,11.52
2022-10-17T04:19:26.004Z,11.52
2022-10-17T04:21:52.559Z,11.51
2022-10-17T04:24:19.107Z,11.51
2022-10-17T04:26:46.220Z,11.49
2022-10-17T04:29:12.785Z,11.50
2022-10-17T04:31:39.276Z,11.50
2022-10-17T04:34:05.775Z,11.48
2022-10-17T04:36:32.281Z,11.44
2022-10-17T04:39:01.796Z,11.44
2022-10-17T04:41:28.348Z,11.42
2022-10-17T04:43:54.995Z,11.43
2022-10-17T04:46:21.609Z,11.43
2022-10-17T04:48:48.151Z,11.42
2022-10-17T04:51:18.739Z,11.39
2022-10-17T04:53:56.438Z,11.37
2022-10-17T04:56:24.677Z,11.35
2022-10-17T04:58:51.582Z,11.33
2022-10-17T05:01:20.707Z,11.32
2022-10-17T05:03:47.946Z,11.30
2022-10-17T05:06:17.800Z,11.29
2022-10-17T05:08:44.367Z,11.26
2022-10-17T05:11:23.416Z,11.24
2022-10-17T05:13:54.808Z,11.22
2022-10-17T05:16:22.261Z,11.19
2022-10-17T05:18:52.924Z,11.16
2022-10-17T05:21:20.832Z,11.14
2022-10-17T05:23:47.547Z,11.12
2022-10-17T05:26:14.360Z,11.10
2022-10-17T05:28:40.893Z,11.08
2022-10-17T05:31:10.344Z,11.07
2022-10-17T05:33:37.748Z,11.05
2022-10-17T05:36:05.166Z,11.02
2022-10-17T05:38:31.683Z,11.03
2022-10-17T05:41:03.157Z,11.01
2022-10-17T05:43:30.611Z,11.00
2022-10-17T05:45:57.419Z,10.96
2022-10-17T05:48:24.352Z,10.95
2022-10-17T05:50:58.171Z,10.93
2022-10-17T05:53:24.636Z,10.88
2022-10-17T05:56:02.367Z,10.89
2022-10-17T06:01:15.611Z,10.85
2022-10-17T06:03:42.111Z,10.83
2022-10-17T06:06:11.641Z,10.82
2022-10-17T06:08:38.250Z,10.81
2022-10-17T06:11:07.676Z,10.81
2022-10-17T06:13:36.685Z,10.81
2022-10-17T06:16:03.234Z,10.78
2022-10-17T06:18:29.970Z,10.77
2022-10-17T06:21:06.198Z,10.78
2022-10-17T06:23:32.729Z,10.79
2022-10-17T06:26:04.035Z,10.80
2022-10-17T06:28:30.842Z,10.80
2022-10-17T06:30:57.465Z,10.81
2022-10-17T06:33:24.054Z,10.83
2022-10-17T06:35:54.886Z,10.86
2022-10-17T06:38:21.963Z,10.87
2022-10-17T06:40:48.519Z,10.89
2022-10-17T06:43:15.297Z,10.91
2022-10-17T06:45:42.372Z,10.93
2022-10-17T06:48:09.069Z,10.96
2022-10-17T06:50:35.646Z,10.99
2022-10-17T06:53:02.172Z,11.01
2022-10-17T06:55:28.783Z,11.07
2022-10-17T06:57:57.111Z,11.14
2022-10-17T07:00:24.060Z,11.24
2022-10-17T07:02:50.669Z,11.29
2022-10-17T07:05:19.201Z,11.35
2022-10-17T07:07:47.459Z,11.42
2022-10-17T07:10:16.253Z,11.51
2022-10-17T07:12:44.757Z,11.55
2022-10-17T07:15:11.750Z,11.62
2022-10-17T07:17:38.341Z,11.65
2022-10-17T07:20:05.184Z,11.72
2022-10-17T07:22:31.748Z,11.83
2022-10-17T07:24:58.250Z,11.86
2022-10-17T07:27:24.757Z,11.96
2022-10-17T07:29:51.251Z,12.03
2022-10-17T07:32:17.750Z,12.10
2022-10-17T07:34:44.222Z,12.14
2022-10-17T07:37:10.776Z,12.21
2022-10-17T07:39:37.355Z,12.27
2022-10-17T07:42:05.137Z,12.34
2022-10-17T07:44:31.600Z,12.41
2022-10-17T07:46:58.114Z,12.45
2022-10-17T07:49:24.618Z,12.55
2022-10-17T07:51:51.136Z,12.67
2022-10-17T07:54:17.681Z,12.79
2022-10-17T07:56:44.211Z,12.87
2022-10-17T07:59:10.682Z,12.97
2022-10-17T08:01:37.974Z,13.08
2022-10-17T08:04:04.505Z,13.16
2022-10-17T08:06:31.006Z,13.24
2022-10-17T08:08:58.515Z,13.30
2022-10-17T08:11:25.463Z,13.36
2022-10-17T08:13:52.031Z,13.41
2022-10-17T08:16:18.638Z,13.47
2022-10-17T08:18:45.291Z,13.53
2022-10-17T08:21:13.320Z,13.60
2022-10-17T08:23:40.644Z,13.65
2022-10-17T08:26:10.775Z,13.76
2022-10-17T08:28:39.509Z,13.82
2022-10-17T08:31:09.011Z,13.88
2022-10-17T08:33:35.542Z,13.97
2022-10-17T08:36:03.856Z,14.05
2022-10-17T08:38:35.103Z,14.10
2022-10-17T08:41:06.723Z,14.17
2022-10-17T08:43:51.773Z,14.25
2022-10-17T08:46:20.025Z,14.35
2022-10-17T08:48:49.585Z,14.43
2022-10-17T08:51:19.645Z,14.49
2022-10-17T08:53:56.510Z,14.58
2022-10-17T08:56:43.945Z,14.66
2022-10-17T08:59:33.509Z,14.77
2022-10-17T09:02:26.318Z,14.85
2022-10-17T09:05:23.860Z,14.95
2022-10-17T09:08:01.942Z,15.03
2022-10-17T09:10:33.963Z,15.12
2022-10-17T09:13:09.191Z,15.20
2022-10-17T09:16:12.835Z,15.29
2022-10-17T09:18:43.012Z,15.37
2022-10-17T09:21:47.583Z,15.48
2022-10-17T09:24:19.411Z,15.57
2022-10-17T09:26:46.933Z,15.67
2022-10-17T09:29:23.221Z,15.77
2022-10-17T09:32:19.226Z,15.90
2022-10-17T09:34:45.738Z,16.01
2022-10-17T09:37:16.014Z,16.13
2022-10-17T09:39:43.582Z,16.24
2022-10-17T09:42:13.804Z,16.35
2022-10-17T09:44:50.619Z,16.45
2022-10-17T09:47:41.262Z,16.56
2022-10-17T09:50:26.852Z,16.69
2022-10-17T09:52:54.302Z,16.79
2022-10-17T09:55:40.081Z,16.89
2022-10-17T09:58:08.873Z,17.01
2022-10-17T10:00:41.273Z,17.12
2022-10-17T10:03:22.228Z,17.21
2022-10-17T10:06:02.883Z,17.32
2022-10-17T10:08:35.490Z,17.43
2022-10-17T10:11:11.813Z,17.50
2022-10-17T10:13:40.404Z,17.58
2022-10-17T10:16:44.583Z,17.67
2022-10-17T10:19:49.420Z,17.76
2022-10-17T10:22:17.823Z,17.82
2022-10-17T10:24:44.592Z,17.87
2022-10-17T10:27:16.984Z,17.91
2022-10-17T10:29:49.957Z,17.98
2022-10-17T10:32:26.308Z,18.02
2022-10-17T10:35:03.940Z,18.07
2022-10-17T10:37:39.883Z,18.11
2022-10-17T10:40:18.019Z,18.13
2022-10-17T10:42:49.259Z,18.18
2022-10-17T10:45:47.457Z,18.20
2022-10-17T10:48:32.590Z,18.24
2022-10-17T10:51:17.907Z,18.27
2022-10-17T10:53:54.607Z,18.29
2022-10-17T10:56:41.629Z,18.27
2022-10-17T10:59:33.659Z,18.28
2022-10-17T11:02:00.132Z,18.29
2022-10-17T11:05:14.172Z,18.29
2022-10-17T11:07:43.351Z,18.29
2022-10-17T11:10:25.389Z,18.31
2022-10-17T11:13:06.732Z,18.31
2022-10-17T11:15:40.309Z,18.33
2022-10-17T11:18:33.375Z,18.33
2022-10-17T11:21:05.969Z,18.33
2022-10-17T11:23:43.022Z,18.36
2022-10-17T11:26:19.747Z,18.37
2022-10-17T11:28:46.356Z,18.40
2022-10-17T11:31:15.788Z,18.39
2022-10-17T11:33:57.470Z,18.41
2022-10-17T11:36:31.211Z,18.39
2022-10-17T11:39:07.356Z,18.43
2022-10-17T11:41:53.374Z,18.41
2022-10-17T11:44:40.157Z,18.45
2022-10-17T11:47:23.257Z,18.49
2022-10-17T11:49:54.254Z,18.48
2022-10-17T11:52:54.895Z,18.52
2022-10-17T11:55:24.246Z,18.52
2022-10-17T11:57:59.575Z,18.47
2022-10-17T12:00:35.816Z,18.47
2022-10-17T12:03:10.547Z,18.49
2022-10-17T12:06:06.342Z,18.45
2022-10-17T12:08:49.767Z,18.45
2022-10-17T12:11:54.016Z,18.41
2022-10-17T12:14:43.957Z,18.29
2022-10-17T12:17:29.061Z,18.23
2022-10-17T12:20:15.627Z,18.15
2022-10-17T12:22:49.727Z,17.96
2022-10-17T12:25:23.078Z,17.70
2022-10-17T12:27:51.162Z,17.59
2022-10-17T12:30:24.217Z,17.60
2022-10-17T12:33:11.447Z,17.55
2022-10-17T12:35:39.208Z,17.38
2022-10-17T12:38:17.701Z,17.35
2022-10-17T12:40:48.618Z,17.32
2022-10-17T12:43:15.500Z,17.28
2022-10-17T12:45:57.098Z,17.26
2022-10-17T12:48:39.499Z,17.20
2022-10-17T12:54:08.675Z,17.08
2022-10-17T12:56:39.563Z,17.04
2022-10-17T12:59:28.605Z,16.87
2022-10-17T13:01:59.052Z,16.77
2022-10-17T13:04:28.531Z,16.78
2022-10-17T13:06:58.613Z,16.77
2022-10-17T13:09:29.049Z,16.68
2022-10-17T13:11:58.869Z,16.62
2022-10-17T13:14:26.886Z,16.59
2022-10-17T13:16:59.346Z,16.60
2022-10-17T13:19:31.821Z,16.58
2022-10-17T13:22:06.732Z,16.59
2022-10-17T13:24:39.045Z,16.57
2022-10-17T13:27:20.974Z,16.57
2022-10-17T13:29:47.728Z,16.55
2022-10-17T13:32:14.212Z,16.55
2022-10-17T13:34:40.911Z,16.54
2022-10-17T13:37:14.808Z,16.55
2022-10-17T13:39:54.791Z,16.52
2022-10-17T13:42:29.709Z,16.51
2022-10-17T13:44:58.312Z,16.49
2022-10-17T13:47:28.388Z,16.47
2022-10-17T13:49:55.939Z,16.44
2022-10-17T13:52:26.892Z,16.44
2022-10-17T13:54:54.395Z,16.42
2022-10-17T13:57:21.486Z,16.40
2022-10-17T13:59:52.853Z,16.39
2022-10-17T14:02:23.527Z,16.38
2022-10-17T14:05:17.854Z,16.39
2022-10-17T14:08:16.721Z,16.37
2022-10-17T14:10:44.739Z,16.36
2022-10-17T14:13:37.715Z,16.34
2022-10-17T14:16:05.043Z,16.34
2022-10-17T14:18:36.705Z,16.31
2022-10-17T14:21:40.563Z,16.31
2022-10-17T14:24:11.754Z,16.32
2022-10-17T14:26:54.064Z,16.33
2022-10-17T14:29:22.361Z,16.33
2022-10-17T14:31:50.737Z,16.33
2022-10-17T14:34:24.095Z,16.33
2022-10-17T14:36:52.905Z,16.32
2022-10-17T14:39:23.558Z,16.31
2022-10-17T14:41:51.855Z,16.31
2022-10-17T14:44:26.332Z,16.31
2022-10-17T14:47:13.227Z,16.31
2022-10-17T14:50:01.898Z,16.31
2022-10-17T14:52:30.748Z,16.31
2022-10-17T14:54:59.586Z,16.29
2022-10-17T14:57:34.421Z,16.30
2022-10-17T15:00:01.095Z,16.28
2022-10-17T15:02:30.645Z,16.26
2022-10-17T15:05:01.560Z,16.26
2022-10-17T15:07:29.710Z,16.24
2022-10-17T15:09:56.316Z,16.26
2022-10-17T15:12:25.337Z,16.22
2022-10-17T15:14:53.017Z,16.21
2022-10-17T15:17:21.072Z,16.20
2022-10-17T15:19:48.611Z,16.17
2022-10-17T15:22:16.271Z,16.18
2022-10-17T15:24:43.180Z,16.16
2022-10-17T15:27:18.765Z,16.15
2022-10-17T15:29:45.952Z,16.13
2022-10-17T15:32:12.930Z,16.12
2022-10-17T15:34:39.524Z,16.12
2022-10-17T15:37:14.518Z,16.12
2022-10-17T15:39:41.017Z,16.10
2022-10-17T15:42:12.469Z,16.07
2022-10-17T15:44:40.462Z,16.07
2022-10-17T15:47:11.593Z,16.07
2022-10-17T15:49:38.163Z,16.06
2022-10-17T15:52:05.748Z,16.04
2022-10-17T15:54:32.272Z,16.12
2022-10-17T15:56:58.771Z,16.27
2022-10-17T15:59:30.392Z,16.37
2022-10-17T16:01:57.008Z,16.40
2022-10-17T16:04:26.812Z,16.43
2022-10-17T16:06:53.488Z,16.49
2022-10-17T16:09:20.024Z,16.54
2022-10-17T16:11:46.658Z,16.57
2022-10-17T16:14:16.103Z,16.55
2022-10-17T16:16:42.855Z,16.57
2022-10-17T16:19:09.532Z,16.56
2022-10-17T16:21:38.991Z,16.57
2022-10-17T16:24:06.432Z,16.60
2022-10-17T16:26:33.021Z,16.58
2022-10-17T16:29:02.881Z,16.59
2022-10-17T16:31:35.250Z,16.60
2022-10-17T16:34:03.463Z,16.60
2022-10-17T16:36:30.126Z,16.58
2022-10-17T16:38:56.685Z,16.57
2022-10-17T16:41:37.673Z,16.52
2022-10-17T16:44:06.549Z,16.54
2022-10-17T16:46:33.924Z,16.58
2022-10-17T16:49:00.507Z,16.61
2022-10-17T16:51:29.194Z,16.59
2022-10-17T16:53:57.055Z,16.57
2022-10-17T16:56:24.946Z,16.55
2022-10-17T16:58:51.905Z,16.55
2022-10-17T17:01:22.507Z,16.53
2022-10-17T17:03:49.922Z,16.54
2022-10-17T17:06:20.607Z,16.54
2022-10-17T17:08:47.431Z,16.49
2022-10-17T17:11:16.680Z,16.48
2022-10-17T17:13:43.427Z,16.44
2022-10-17T17:16:13.518Z,16.43
2022-10-17T17:18:40.656Z,16.41
2022-10-17T17:21:09.047Z,16.41
2022-10-17T17:23:37.236Z,16.40
2022-10-17T17:26:08.317Z,16.40
2022-10-17T17:28:35.621Z,16.41
2022-10-17T17:31:02.705Z,16.41
2022-10-17T17:33:30.203Z,16.41
2022-10-17T17:36:02.006Z,16.39
2022-10-17T17:38:29.800Z,16.38
2022-10-17T17:40:56.378Z,16.39
2022-10-17T17:43:23.635Z,16.39
2022-10-17T17:46:19.476Z,16.38
2022-10-17T17:48:47.653Z,16.36
2022-10-17T17:51:17.127Z,16.36
2022-10-17T17:53:44.343Z,16.34
2022-10-17T17:56:25.211Z,16.27
2022-10-17T17:59:00.695Z,16.26
2022-10-17T18:01:30.069Z,16.27
2022-10-17T18:04:01.230Z,16.27
2022-10-17T18:06:28.724Z,16.28
2022-10-17T18:08:58.124Z,16.31
2022-10-17T18:11:27.332Z,16.31
2022-10-17T18:14:00.093Z,16.27
2022-10-17T18:16:28.175Z,16.23
2022-10-17T18:18:55.159Z,16.22
2022-10-17T18:21:21.870Z,16.18
2022-10-17T18:23:49.224Z,16.09
2022-10-17T18:26:16.607Z,16.01
2022-10-17T18:28:44.072Z,15.93
2022-10-17T18:31:24.351Z,15.74
2022-10-17T18:33:52.815Z,15.63
2022-10-17T18:36:19.905Z,15.57
2022-10-17T18:38:46.445Z,15.52
2022-10-17T18:41:17.575Z,15.52
2022-10-17T18:43:45.834Z,15.52
2022-10-17T18:46:15.521Z,15.51
2022-10-17T18:48:47.113Z,15.50
2022-10-17T18:51:16.442Z,15.50
2022-10-17T18:53:45.310Z,15.50
2022-10-17T18:56:12.815Z,15.49
2022-10-17T18:58:40.379Z,15.46
2022-10-17T19:01:10.822Z,15.44
2022-10-17T19:03:38.093Z,15.42
2022-10-17T19:06:08.378Z,15.39
2022-10-17T19:08:36.281Z,15.34
2022-10-17T19:11:13.476Z,15.34
2022-10-17T19:13:40.558Z,15.29
2022-10-17T19:16:11.989Z,15.26
2022-10-17T19:18:39.961Z,15.25
2022-10-17T19:21:09.464Z,15.23
2022-10-17T19:23:37.405Z,15.17
2022-10-17T19:26:10.311Z,15.11
2022-10-17T19:28:38.545Z,15.09
2022-10-17T19:31:06.074Z,15.05
2022-10-17T19:33:33.373Z,14.98
2022-10-17T19:36:03.688Z,14.93
2022-10-17T19:38:30.633Z,14.91
2022-10-17T19:40:57.247Z,14.85
2022-10-17T19:43:23.905Z,14.79
2022-10-17T19:46:01.802Z,14.75
2022-10-17T19:48:32.093Z,14.71
2022-10-17T19:50:58.758Z,14.69
2022-10-17T19:53:27.897Z,14.65
2022-10-17T19:55:54.396Z,14.59
2022-10-17T19:58:20.942Z,14.58
2022-10-17T20:00:49.646Z,14.55
2022-10-17T20:03:16.937Z,14.50
2022-10-17T20:05:43.557Z,14.46
2022-10-17T20:08:10.142Z,14.41
2022-10-17T20:10:36.712Z,14.39
2022-10-17T20:13:03.712Z,14.37
2022-10-17T20:15:30.255Z,14.33
2022-10-17T20:17:57.989Z,14.33
2022-10-17T20:20:25.358Z,14.29
2022-10-17T20:22:51.859Z,14.27
2022-10-17T20:25:18.558Z,14.26
2022-10-17T20:27:45.130Z,14.24
2022-10-17T20:30:13.341Z,14.22
2022-10-17T20:32:39.885Z,14.20
2022-10-17T20:35:07.599Z,14.19
2022-10-17T20:37:40.008Z,14.20
2022-10-17T20:40:34.185Z,14.18
2022-10-17T20:42:56.167Z,14.20
2022-10-17T20:45:37.376Z,14.19
2022-10-17T20:48:15.099Z,14.18
2022-10-17T20:50:42.878Z,14.19
2022-10-17T20:53:34.791Z,14.16
2022-10-17T20:56:08.229Z,14.14
2022-10-17T20:58:35.636Z,14.12
2022-10-17T21:01:07.262Z,14.12
2022-10-17T21:03:41.018Z,14.11
2022-10-17T21:06:10.930Z,14.10
2022-10-17T21:08:37.981Z,14.09
2022-10-17T21:11:16.742Z,14.07
2022-10-17T21:13:44.008Z,14.05
2022-10-17T21:16:13.332Z,14.04
2022-10-17T21:18:41.095Z,14.02
2022-10-17T21:21:16.219Z,14.01
2022-10-17T21:23:45.164Z,14.00
2022-10-17T21:26:12.915Z,13.98
2022-10-17T21:28:40.788Z,13.96
2022-10-17T21:31:13.445Z,13.93
2022-10-17T21:33:40.992Z,13.92
2022-10-17T21:36:08.465Z,13.91
2022-10-17T21:38:38.693Z,13.88
2022-10-17T21:41:06.912Z,13.87
2022-10-17T21:43:34.911Z,13.85
2022-10-17T21:46:09.139Z,13.84
2022-10-17T21:48:36.053Z,13.84
2022-10-17T21:51:05.407Z,13.83
2022-10-17T21:53:32.177Z,13.84
2022-10-17T21:56:00.691Z,13.82
2022-10-17T21:58:28.764Z,13.84
2022-10-17T22:01:11.715Z,13.84
2022-10-17T22:03:45.901Z,13.85
2022-10-17T22:09:18.790Z,13.84
2022-10-17T22:11:51.044Z,13.85
2022-10-17T22:14:19.912Z,13.86
2022-10-17T22:16:47.496Z,13.85
2022-10-17T22:19:21.013Z,13.86
2022-10-17T22:21:47.874Z,13.85
2022-10-17T22:24:16.621Z,13.86
2022-10-17T22:26:44.540Z,13.84
2022-10-17T22:29:11.759Z,13.83
2022-10-17T22:31:39.083Z,13.81
2022-10-17T22:34:06.960Z,13.80
2022-10-17T22:36:34.647Z,13.78
2022-10-17T22:39:01.479Z,13.76
2022-10-17T22:41:27.978Z,13.74
2022-10-17T22:43:54.566Z,13.73
2022-10-17T22:46:21.094Z,13.71
2022-10-17T22:48:47.656Z,13.71
2022-10-17T22:51:14.671Z,13.70
2022-10-17T22:53:41.667Z,13.70
2022-10-17T22:56:17.893Z,13.70
2022-10-17T22:58:44.482Z,13.70
2022-10-17T23:01:15.924Z,13.69
2022-10-17T23:03:43.300Z,13.69
2022-10-17T23:06:10.245Z,13.68
2022-10-17T23:08:37.398Z,13.67
2022-10-17T23:11:05.229Z,13.64
2022-10-17T23:13:31.763Z,13.63
2022-10-17T23:15:58.334Z,13.62
2022-10-17T23:18:26.869Z,13.60
2022-10-17T23:20:53.461Z,13.56
2022-10-17T23:23:20.397Z,13.56
2022-10-17T23:25:47.648Z,13.54
2022-10-17T23:28:14.155Z,13.51
2022-10-17T23:30:41.248Z,13.50
2022-10-17T23:33:10.472Z,13.47
2022-10-17T23:35:36.998Z,13.47
2022-10-17T23:38:03.775Z,13.44
2022-10-17T23:40:30.523Z,13.42
2022-10-17T23:42:56.988Z,13.42
2022-10-17T23:45:23.595Z,13.38
2022-10-17T23:47:50.171Z,13.37
2022-10-17T23:50:16.735Z,13.38
2022-10-17T23:52:43.531Z,13.36
2022-10-17T23:55:10.509Z,13.34
2022-10-17T23:57:36.989Z,13.31
